createdAt,value
2019-04-25T00:04:16.841Z,1.87
2019-04-25T00:10:22.022Z,1.75
2019-04-25T00:16:28.237Z,2.05
2019-04-25T00:22:47.169Z,1.70
2019-04-25T00:28:52.397Z,2.08
2019-04-25T00:34:57.556Z,1.80
2019-04-25T00:41:01.936Z,1.87
2019-04-25T00:47:06.511Z,1.80
2019-04-25T00:53:11.351Z,2.47
2019-04-25T00:59:27.906Z,2.87
2019-04-25T01:05:32.246Z,2.02
2019-04-25T01:11:36.586Z,2.87
2019-04-25T01:17:41.376Z,2.45
2019-04-25T01:23:45.866Z,3.25
2019-04-25T01:29:50.179Z,3.98
2019-04-25T01:36:06.207Z,3.02
2019-04-25T01:42:25.134Z,2.95
2019-04-25T01:48:29.488Z,2.80
2019-04-25T01:54:34.020Z,2.67
2019-04-25T02:00:43.101Z,6.78
2019-04-25T02:06:48.715Z,5.47
2019-04-25T02:12:57.649Z,5.17
2019-04-25T02:19:03.917Z,6.47
2019-04-25T02:25:08.219Z,3.45
2019-04-25T02:31:15.355Z,4.80
2019-04-25T02:37:18.540Z,4.35
2019-04-25T02:43:23.943Z,3.37
2019-04-25T02:49:50.369Z,3.02
2019-04-25T02:55:56.299Z,4.42
2019-04-25T03:02:03.094Z,5.42
2019-04-25T03:08:10.314Z,5.25
2019-04-25T03:14:14.698Z,5.12
2019-04-25T03:20:35.438Z,4.50
2019-04-25T03:26:40.699Z,3.87
2019-04-25T03:32:45.397Z,5.42
2019-04-25T03:38:49.670Z,4.72
2019-04-25T03:44:54.001Z,3.25
2019-04-25T03:50:58.372Z,5.75
2019-04-25T03:57:05.291Z,6.80
2019-04-25T04:03:09.076Z,5.05
2019-04-25T04:09:14.227Z,5.22
2019-04-25T04:15:20.177Z,4.65
2019-04-25T04:21:43.458Z,5.85
2019-04-25T04:27:47.754Z,3.92
2019-04-25T04:33:53.131Z,3.25
2019-04-25T04:39:57.708Z,4.87
2019-04-25T04:46:01.952Z,2.50
2019-04-25T04:52:06.562Z,2.85
2019-04-25T04:58:11.137Z,3.55
2019-04-25T05:04:25.099Z,2.95
2019-04-25T05:10:28.887Z,4.62
2019-04-25T05:16:33.297Z,4.53
2019-04-25T05:22:37.555Z,4.80
2019-04-25T05:28:41.949Z,5.37
2019-04-25T05:34:49.217Z,4.40
2019-04-25T05:41:05.819Z,3.70
2019-04-25T05:47:10.098Z,4.53
2019-04-25T05:53:14.476Z,7.83
2019-04-25T05:59:19.489Z,4.17
2019-04-25T06:05:26.425Z,5.05
2019-04-25T06:11:53.352Z,4.33
2019-04-25T06:18:11.457Z,4.60
2019-04-25T06:24:36.799Z,6.00
2019-04-25T06:30:41.107Z,6.10
2019-04-25T06:36:45.616Z,6.10
2019-04-25T06:42:50.049Z,4.65
2019-04-25T06:49:03.526Z,6.78
2019-04-25T06:55:07.990Z,6.33
2019-04-25T07:01:13.500Z,6.17
2019-04-25T07:07:17.999Z,8.55
2019-04-25T07:13:24.658Z,4.58
2019-04-25T07:19:29.837Z,5.15
2019-04-25T07:25:36.879Z,4.58
2019-04-25T07:31:49.256Z,5.67
2019-04-25T07:37:54.002Z,7.58
2019-04-25T07:43:58.378Z,4.55
2019-04-25T07:50:04.001Z,8.35
2019-04-25T07:56:08.452Z,7.92
2019-04-25T08:02:13.400Z,4.40
2019-04-25T08:08:17.905Z,4.33
2019-04-25T08:14:28.539Z,6.58
2019-04-25T08:20:34.749Z,5.92
2019-04-25T08:26:39.443Z,3.22
2019-04-25T08:32:44.104Z,5.00
2019-04-25T08:38:48.470Z,5.95
2019-04-25T08:44:53.471Z,5.28
2019-04-25T08:51:04.816Z,2.95
2019-04-25T08:57:16.023Z,3.05
2019-04-25T09:03:24.216Z,7.45
2019-04-25T09:09:28.609Z,5.05
2019-04-25T09:15:35.660Z,4.87
2019-04-25T09:21:42.320Z,9.18
2019-04-25T09:27:45.823Z,6.50
2019-04-25T09:33:54.190Z,4.92
2019-04-25T09:40:05.996Z,4.53
2019-04-25T09:46:18.363Z,3.42
2019-04-25T09:52:24.327Z,4.00
2019-04-25T09:58:36.415Z,7.42
2019-04-25T10:04:41.282Z,2.75
2019-04-25T10:10:46.683Z,3.17
2019-04-25T10:16:51.070Z,4.60
2019-04-25T10:22:55.321Z,4.90
2019-04-25T10:28:59.917Z,4.28
2019-04-25T10:35:04.525Z,3.15
2019-04-25T10:41:09.149Z,4.00
2019-04-25T10:47:13.379Z,4.30
2019-04-25T10:53:17.713Z,2.00
2019-04-25T10:59:23.468Z,2.70
2019-04-25T11:05:28.158Z,4.70
2019-04-25T11:11:35.056Z,2.33
2019-04-25T11:17:39.266Z,3.83
2019-04-25T11:23:44.955Z,5.70
2019-04-25T11:29:50.760Z,4.67
2019-04-25T11:35:56.301Z,2.33
2019-04-25T11:42:01.639Z,3.60
2019-04-25T11:48:06.212Z,3.45
2019-04-25T11:54:10.458Z,2.17
2019-04-25T12:00:22.234Z,1.90
2019-04-25T12:06:24.385Z,2.52
2019-04-25T12:12:28.980Z,2.08
2019-04-25T12:18:33.934Z,1.27
2019-04-25T12:24:39.416Z,1.05
2019-04-25T12:30:44.947Z,3.20
2019-04-25T12:36:50.245Z,1.35
2019-04-25T12:42:54.583Z,1.45
2019-04-25T12:48:58.881Z,1.35
2019-04-25T12:55:04.082Z,1.80
2019-04-25T13:01:09.321Z,3.98
2019-04-25T13:07:13.799Z,1.70
2019-04-25T13:13:18.120Z,2.98
2019-04-25T13:19:24.639Z,1.10
2019-04-25T13:25:28.841Z,1.05
2019-04-25T13:31:44.643Z,2.85
2019-04-25T13:37:48.965Z,2.52
2019-04-25T13:43:54.672Z,2.67
2019-04-25T13:49:59.275Z,1.80
2019-04-25T13:56:04.898Z,1.20
2019-04-25T14:02:09.995Z,0.98
2019-04-25T14:08:14.955Z,0.90
2019-04-25T14:14:19.244Z,1.90
2019-04-25T14:20:30.295Z,1.82
2019-04-25T14:26:34.626Z,1.45
2019-04-25T14:32:38.948Z,0.80
2019-04-25T14:38:43.295Z,2.05
2019-04-25T14:44:47.915Z,1.10
2019-04-25T14:50:52.261Z,0.88
2019-04-25T14:57:15.544Z,0.90
2019-04-25T15:03:20.061Z,2.15
2019-04-25T15:09:24.625Z,1.90
2019-04-25T15:15:29.341Z,2.55
2019-04-25T15:21:33.991Z,2.17
2019-04-25T15:27:38.301Z,1.30
2019-04-25T15:33:43.660Z,4.62
2019-04-25T15:39:52.505Z,2.08
2019-04-25T15:46:03.884Z,1.35
2019-04-25T15:52:08.612Z,2.22
2019-04-25T15:58:12.894Z,2.22
2019-04-25T16:04:17.212Z,2.98
2019-04-25T16:10:21.634Z,1.92
2019-04-25T16:16:26.792Z,1.98
2019-04-25T16:22:32.190Z,4.08
2019-04-25T16:28:36.562Z,3.92
2019-04-25T16:34:42.023Z,4.83
2019-04-25T16:40:46.419Z,2.52
2019-04-25T16:46:50.844Z,2.05
2019-04-25T16:52:55.291Z,3.35
2019-04-25T16:58:59.722Z,4.50
2019-04-25T17:05:05.058Z,3.52
2019-04-25T17:11:09.777Z,2.42
2019-04-25T17:17:32.211Z,2.70
2019-04-25T17:23:37.027Z,4.05
2019-04-25T17:29:41.367Z,3.55
2019-04-25T17:36:03.700Z,3.35
2019-04-25T17:42:08.247Z,3.37
2019-04-25T17:48:12.646Z,2.60
2019-04-25T17:54:18.479Z,5.37
2019-04-25T18:00:28.306Z,4.22
2019-04-25T18:06:33.292Z,5.53
2019-04-25T18:12:38.519Z,4.65
2019-04-25T18:18:49.225Z,3.85
2019-04-25T18:25:11.245Z,7.60
2019-04-25T18:31:15.931Z,4.70
2019-04-25T18:37:42.690Z,3.25
2019-04-25T18:43:50.317Z,2.98
2019-04-25T18:49:54.660Z,2.45
2019-04-25T18:56:04.849Z,3.85
2019-04-25T19:02:46.256Z,3.37
2019-04-25T19:08:53.571Z,2.15
2019-04-25T19:14:57.921Z,3.87
2019-04-25T19:21:03.241Z,4.22
2019-04-25T19:27:07.928Z,3.37
2019-04-25T19:33:12.565Z,2.30
2019-04-25T19:39:18.451Z,5.35
2019-04-25T19:45:22.764Z,4.55
2019-04-25T19:51:27.168Z,3.02
2019-04-25T19:57:31.756Z,3.30
2019-04-25T20:03:53.462Z,2.83
2019-04-25T20:10:07.979Z,1.92
2019-04-25T20:16:13.136Z,2.15
2019-04-25T20:22:17.494Z,2.47
2019-04-25T20:28:21.928Z,3.42
2019-04-25T20:34:26.302Z,2.12
2019-04-25T20:40:31.338Z,3.70
2019-04-25T20:46:35.691Z,3.80
2019-04-25T20:52:40.146Z,3.10
2019-04-25T20:58:44.644Z,2.55
2019-04-25T21:04:50.041Z,2.25
2019-04-25T21:10:54.575Z,2.95
2019-04-25T21:17:08.667Z,1.65
2019-04-25T21:23:13.062Z,2.37
2019-04-25T21:29:17.497Z,1.90
2019-04-25T21:35:23.591Z,1.65
2019-04-25T21:41:45.331Z,1.65
2019-04-25T21:47:49.941Z,1.15
2019-04-25T21:53:55.217Z,1.75
2019-04-25T22:00:06.670Z,1.45
2019-04-25T22:06:07.659Z,2.20
2019-04-25T22:12:12.533Z,2.35
2019-04-25T22:18:17.117Z,3.90
2019-04-25T22:24:21.482Z,6.42
2019-04-25T22:30:26.163Z,1.77
2019-04-25T22:36:30.878Z,1.47
2019-04-25T22:42:35.278Z,1.85
2019-04-25T22:48:48.717Z,2.17
2019-04-25T22:54:53.087Z,2.45
2019-04-25T23:00:57.795Z,2.80
2019-04-25T23:07:02.587Z,2.47
2019-04-25T23:13:07.250Z,3.15
2019-04-25T23:19:11.644Z,2.22
2019-04-25T23:25:18.391Z,1.80
2019-04-25T23:31:27.038Z,3.47
2019-04-25T23:37:31.663Z,2.42
2019-04-25T23:43:35.888Z,2.83
2019-04-25T23:49:40.296Z,2.95
2019-04-25T23:55:45.028Z,3.02
